createdAt,value
2022-10-28T00:00:48.848Z,1016.48
2022-10-28T00:01:48.942Z,1016.46
2022-10-28T00:02:48.855Z,1016.43
2022-10-28T00:03:48.811Z,1016.46
2022-10-28T00:04:48.780Z,1016.44
2022-10-28T00:05:48.792Z,1016.48
2022-10-28T00:06:48.772Z,1016.49
2022-10-28T00:07:48.760Z,1016.50
2022-10-28T00:08:48.753Z,1016.55
2022-10-28T00:09:48.737Z,1016.52
2022-10-28T00:10:48.730Z,1016.48
2022-10-28T00:11:48.708Z,1016.45
2022-10-28T00:12:48.703Z,1016.46
2022-10-28T00:13:48.696Z,1016.48
2022-10-28T00:14:48.692Z,1016.49
2022-10-28T00:15:48.668Z,1016.51
2022-10-28T00:16:48.657Z,1016.54
2022-10-28T00:17:48.652Z,1016.53
2022-10-28T00:18:48.659Z,1016.57
2022-10-28T00:19:48.619Z,1016.61
2022-10-28T00:20:48.609Z,1016.64
2022-10-28T00:21:48.609Z,1016.60
2022-10-28T00:22:48.583Z,1016.60
2022-10-28T00:23:48.580Z,1016.62
2022-10-28T00:24:48.598Z,1016.58
2022-10-28T00:25:48.567Z,1016.61
2022-10-28T00:26:48.547Z,1016.60
2022-10-28T00:27:48.537Z,1016.58
2022-10-28T00:28:48.523Z,1016.56
2022-10-28T00:29:48.531Z,1016.56
2022-10-28T00:30:48.531Z,1016.59
2022-10-28T00:31:48.492Z,1016.55
2022-10-28T00:32:48.478Z,1016.57
2022-10-28T00:33:48.469Z,1016.56
2022-10-28T00:34:48.481Z,1016.55
2022-10-28T00:35:48.456Z,1016.56
2022-10-28T00:36:48.440Z,1016.57
2022-10-28T00:37:48.429Z,1016.58
2022-10-28T00:38:48.423Z,1016.57
2022-10-28T00:39:48.408Z,1016.56
2022-10-28T00:40:48.415Z,1016.56
2022-10-28T00:41:48.393Z,1016.50
2022-10-28T00:42:48.389Z,1016.49
2022-10-28T00:43:48.363Z,1016.46
2022-10-28T00:44:48.345Z,1016.45
2022-10-28T00:45:48.344Z,1016.43
2022-10-28T00:46:48.364Z,1016.44
2022-10-28T00:47:48.318Z,1016.47
2022-10-28T00:48:48.307Z,1016.45
2022-10-28T00:49:48.292Z,1016.46
2022-10-28T00:50:48.289Z,1016.46
2022-10-28T00:51:48.271Z,1016.48
2022-10-28T00:52:48.288Z,1016.45
2022-10-28T00:53:48.249Z,1016.44
2022-10-28T00:54:48.236Z,1016.40
2022-10-28T00:55:48.239Z,1016.40
2022-10-28T00:56:48.229Z,1016.40
2022-10-28T00:57:48.209Z,1016.45
2022-10-28T00:58:48.211Z,1016.45
2022-10-28T00:59:48.199Z,1016.40
2022-10-28T01:00:48.187Z,1016.42
2022-10-28T01:01:48.316Z,1016.35
2022-10-28T01:02:48.273Z,1016.37
2022-10-28T01:03:48.144Z,1016.37
2022-10-28T01:04:48.142Z,1016.39
2022-10-28T01:05:48.125Z,1016.36
2022-10-28T01:06:48.128Z,1016.32
2022-10-28T01:07:48.132Z,1016.38
2022-10-28T01:08:48.097Z,1016.32
2022-10-28T01:09:48.086Z,1016.30
2022-10-28T01:10:48.071Z,1016.31
2022-10-28T01:11:48.063Z,1016.32
2022-10-28T01:12:48.059Z,1016.33
2022-10-28T01:13:48.058Z,1016.33
2022-10-28T01:14:48.022Z,1016.36
2022-10-28T01:15:48.021Z,1016.37
2022-10-28T01:16:47.998Z,1016.36
2022-10-28T01:17:48.001Z,1016.34
2022-10-28T01:18:48.010Z,1016.33
2022-10-28T01:19:47.973Z,1016.31
2022-10-28T01:20:48.446Z,1016.31
2022-10-28T01:21:47.969Z,1016.30
2022-10-28T01:22:47.940Z,1016.29
2022-10-28T01:23:47.949Z,1016.28
2022-10-28T01:24:47.919Z,1016.26
2022-10-28T01:25:47.912Z,1016.26
2022-10-28T01:26:47.912Z,1016.28
2022-10-28T01:27:47.891Z,1016.31
2022-10-28T01:28:47.893Z,1016.27
2022-10-28T01:29:47.892Z,1016.28
2022-10-28T01:30:47.856Z,1016.22
2022-10-28T01:31:47.844Z,1016.18
2022-10-28T01:32:47.831Z,1016.16
2022-10-28T01:33:47.821Z,1016.12
2022-10-28T01:34:47.830Z,1016.13
2022-10-28T01:35:47.807Z,1016.15
2022-10-28T01:36:47.799Z,1016.17
2022-10-28T01:37:47.776Z,1016.14
2022-10-28T01:38:47.773Z,1016.16
2022-10-28T01:39:47.767Z,1016.17
2022-10-28T01:40:47.735Z,1016.16
2022-10-28T01:41:47.750Z,1016.15
2022-10-28T01:42:47.744Z,1016.12
2022-10-28T01:43:47.717Z,1016.07
2022-10-28T01:44:47.718Z,1016.10
2022-10-28T01:45:47.706Z,1016.09
2022-10-28T01:46:47.676Z,1016.12
2022-10-28T01:47:47.690Z,1016.05
2022-10-28T01:48:47.651Z,1016.10
2022-10-28T01:49:47.649Z,1016.11
2022-10-28T01:50:47.635Z,1016.09
2022-10-28T01:51:47.623Z,1016.04
2022-10-28T01:52:47.623Z,1016.11
2022-10-28T01:53:47.602Z,1016.07
2022-10-28T01:54:47.588Z,1016.09
2022-10-28T01:55:47.585Z,1016.05
2022-10-28T01:56:47.568Z,1016.06
2022-10-28T01:57:47.579Z,1016.02
2022-10-28T01:58:47.561Z,1016.05
2022-10-28T01:59:47.545Z,1016.02
2022-10-28T02:00:47.625Z,1016.04
2022-10-28T02:01:47.757Z,1016.04
2022-10-28T02:02:47.512Z,1016.07
2022-10-28T02:03:47.535Z,1015.97
2022-10-28T02:04:47.490Z,1016.03
2022-10-28T02:05:47.479Z,1015.98
2022-10-28T02:06:47.474Z,1015.91
2022-10-28T02:07:47.457Z,1015.98
2022-10-28T02:08:47.453Z,1015.97
2022-10-28T02:09:47.461Z,1015.98
2022-10-28T02:10:47.423Z,1015.96
2022-10-28T02:11:47.416Z,1015.95
2022-10-28T02:12:47.402Z,1015.90
2022-10-28T02:13:47.395Z,1015.93
2022-10-28T02:14:47.388Z,1015.93
2022-10-28T02:15:47.407Z,1015.92
2022-10-28T02:16:47.366Z,1015.90
2022-10-28T02:17:47.352Z,1015.88
2022-10-28T02:18:47.337Z,1015.90
2022-10-28T02:19:47.331Z,1015.86
2022-10-28T02:20:47.312Z,1015.85
2022-10-28T02:21:47.316Z,1015.88
2022-10-28T02:22:47.288Z,1015.90
2022-10-28T02:23:47.280Z,1015.94
2022-10-28T02:24:47.275Z,1015.91
2022-10-28T02:25:47.263Z,1015.90
2022-10-28T02:26:47.269Z,1015.91
2022-10-28T02:27:47.233Z,1015.93
2022-10-28T02:28:47.218Z,1015.92
2022-10-28T02:29:47.214Z,1015.95
2022-10-28T02:30:47.205Z,1015.89
2022-10-28T02:31:47.206Z,1015.92
2022-10-28T02:32:47.211Z,1015.89
2022-10-28T02:33:47.170Z,1015.92
2022-10-28T02:34:47.164Z,1015.90
2022-10-28T02:35:47.146Z,1015.98
2022-10-28T02:36:47.145Z,1015.99
2022-10-28T02:37:47.154Z,1016.02
2022-10-28T02:38:47.119Z,1015.97
2022-10-28T02:39:47.110Z,1016.02
2022-10-28T02:40:47.137Z,1016.01
2022-10-28T02:41:47.100Z,1015.98
2022-10-28T02:42:47.080Z,1015.96
2022-10-28T02:43:47.070Z,1015.93
2022-10-28T02:44:47.051Z,1015.92
2022-10-28T02:45:47.035Z,1015.89
2022-10-28T02:46:47.059Z,1015.88
2022-10-28T02:47:47.022Z,1015.88
2022-10-28T02:48:47.026Z,1015.86
2022-10-28T02:49:47.004Z,1015.83
2022-10-28T02:50:46.986Z,1015.83
2022-10-28T02:51:46.977Z,1015.85
2022-10-28T02:52:46.977Z,1015.80
2022-10-28T02:53:46.962Z,1015.88
2022-10-28T02:54:46.973Z,1015.84
2022-10-28T02:55:46.935Z,1015.85
2022-10-28T02:56:46.915Z,1015.88
2022-10-28T02:57:46.915Z,1015.91
2022-10-28T02:58:46.898Z,1015.92
2022-10-28T02:59:46.891Z,1015.94
2022-10-28T03:00:46.963Z,1015.95
2022-10-28T03:01:47.013Z,1015.94
2022-10-28T03:02:46.872Z,1015.94
2022-10-28T03:03:46.851Z,1015.93
2022-10-28T03:04:46.852Z,1015.91
2022-10-28T03:05:46.830Z,1015.90
2022-10-28T03:06:46.819Z,1015.89
2022-10-28T03:07:46.798Z,1015.90
2022-10-28T03:08:46.807Z,1015.88
2022-10-28T03:09:46.775Z,1015.90
2022-10-28T03:10:46.781Z,1015.92
2022-10-28T03:11:46.763Z,1015.89
2022-10-28T03:12:46.763Z,1015.89
2022-10-28T03:13:46.753Z,1015.89
2022-10-28T03:14:46.731Z,1015.88
2022-10-28T03:15:46.706Z,1015.85
2022-10-28T03:16:46.704Z,1015.84
2022-10-28T03:17:46.696Z,1015.84
2022-10-28T03:18:46.681Z,1015.81
2022-10-28T03:19:46.691Z,1015.81
2022-10-28T03:20:46.669Z,1015.79
2022-10-28T03:21:46.647Z,1015.78
2022-10-28T03:22:46.636Z,1015.74
2022-10-28T03:23:46.642Z,1015.74
2022-10-28T03:24:46.637Z,1015.73
2022-10-28T03:25:46.603Z,1015.72
2022-10-28T03:26:46.590Z,1015.67
2022-10-28T03:27:46.590Z,1015.68
2022-10-28T03:28:46.590Z,1015.71
2022-10-28T03:29:46.579Z,1015.68
2022-10-28T03:30:46.558Z,1015.66
2022-10-28T03:31:46.541Z,1015.68
2022-10-28T03:32:46.526Z,1015.68
2022-10-28T03:33:46.522Z,1015.67
2022-10-28T03:34:46.527Z,1015.69
2022-10-28T03:35:46.492Z,1015.70
2022-10-28T03:36:46.503Z,1015.73
2022-10-28T03:37:46.471Z,1015.76
2022-10-28T03:38:46.475Z,1015.78
2022-10-28T03:39:46.444Z,1015.83
2022-10-28T03:40:46.443Z,1015.85
2022-10-28T03:41:46.443Z,1015.87
2022-10-28T03:42:46.422Z,1015.87
2022-10-28T03:43:46.419Z,1015.92
2022-10-28T03:44:46.406Z,1015.97
2022-10-28T03:45:46.382Z,1015.98
2022-10-28T03:46:46.390Z,1015.96
2022-10-28T03:47:46.373Z,1015.96
2022-10-28T03:48:46.360Z,1015.95
2022-10-28T03:49:46.350Z,1015.96
2022-10-28T03:50:46.347Z,1015.96
2022-10-28T03:51:46.318Z,1015.96
2022-10-28T03:52:46.334Z,1015.95
2022-10-28T03:53:46.311Z,1015.94
2022-10-28T03:54:46.308Z,1015.92
2022-10-28T03:55:46.276Z,1015.89
2022-10-28T03:56:46.291Z,1015.82
2022-10-28T03:57:46.264Z,1015.78
2022-10-28T03:58:46.291Z,1015.76
2022-10-28T03:59:46.234Z,1015.78
2022-10-28T04:00:46.248Z,1015.77
2022-10-28T04:01:46.339Z,1015.79
2022-10-28T04:02:46.199Z,1015.82
2022-10-28T04:03:46.220Z,1015.81
2022-10-28T04:04:46.226Z,1015.78
2022-10-28T04:05:46.192Z,1015.77
2022-10-28T04:06:46.161Z,1015.73
2022-10-28T04:07:46.159Z,1015.73
2022-10-28T04:08:46.172Z,1015.69
2022-10-28T04:09:46.131Z,1015.73
2022-10-28T04:10:47.469Z,1015.75
2022-10-28T04:11:46.118Z,1015.71
2022-10-28T04:12:46.092Z,1015.72
2022-10-28T04:13:46.125Z,1015.68
2022-10-28T04:14:46.076Z,1015.70
2022-10-28T04:15:46.068Z,1015.65
2022-10-28T04:16:46.091Z,1015.67
2022-10-28T04:17:46.045Z,1015.70
2022-10-28T04:18:46.042Z,1015.70
2022-10-28T04:19:46.040Z,1015.68
2022-10-28T04:20:46.007Z,1015.75
2022-10-28T04:21:46.015Z,1015.76
2022-10-28T04:22:46.025Z,1015.72
2022-10-28T04:23:45.977Z,1015.77
2022-10-28T04:24:45.987Z,1015.76
2022-10-28T04:25:46.029Z,1015.78
2022-10-28T04:26:45.948Z,1015.76
2022-10-28T04:27:45.951Z,1015.71
2022-10-28T04:28:45.924Z,1015.72
2022-10-28T04:29:45.901Z,1015.68
2022-10-28T04:30:45.902Z,1015.70
2022-10-28T04:31:48.657Z,1015.69
2022-10-28T04:32:47.007Z,1015.67
2022-10-28T04:33:45.868Z,1015.62
2022-10-28T04:34:45.881Z,1015.60
2022-10-28T04:35:45.865Z,1015.59
2022-10-28T04:36:45.836Z,1015.60
2022-10-28T04:37:45.824Z,1015.59
2022-10-28T04:38:45.822Z,1015.59
2022-10-28T04:39:45.815Z,1015.61
2022-10-28T04:40:45.801Z,1015.62
2022-10-28T04:41:45.799Z,1015.70
2022-10-28T04:42:45.768Z,1015.69
2022-10-28T04:43:45.769Z,1015.67
2022-10-28T04:44:45.766Z,1015.66
2022-10-28T04:45:45.729Z,1015.66
2022-10-28T04:46:45.726Z,1015.63
2022-10-28T04:47:45.753Z,1015.61
2022-10-28T04:48:45.703Z,1015.59
2022-10-28T04:49:45.714Z,1015.59
2022-10-28T04:50:45.687Z,1015.59
2022-10-28T04:52:45.655Z,1015.62
2022-10-28T04:53:45.674Z,1015.59
2022-10-28T04:54:45.650Z,1015.60
2022-10-28T04:55:45.650Z,1015.54
2022-10-28T04:56:45.647Z,1015.57
2022-10-28T04:57:45.647Z,1015.52
2022-10-28T04:58:45.593Z,1015.49
2022-10-28T04:59:45.612Z,1015.51
2022-10-28T05:00:45.702Z,1015.49
2022-10-28T05:01:45.658Z,1015.49
2022-10-28T05:02:46.278Z,1015.48
2022-10-28T05:03:45.536Z,1015.58
2022-10-28T05:04:45.538Z,1015.57
2022-10-28T05:05:45.527Z,1015.57
2022-10-28T05:06:45.515Z,1015.58
2022-10-28T05:07:45.515Z,1015.58
2022-10-28T05:08:45.490Z,1015.55
2022-10-28T05:09:45.475Z,1015.52
2022-10-28T05:10:45.468Z,1015.53
2022-10-28T05:11:45.472Z,1015.52
2022-10-28T05:12:45.452Z,1015.52
2022-10-28T05:13:45.449Z,1015.56
2022-10-28T05:14:46.536Z,1015.57
2022-10-28T05:15:45.404Z,1015.63
2022-10-28T05:16:45.401Z,1015.64
2022-10-28T05:17:45.402Z,1015.59
2022-10-28T05:19:45.391Z,1015.57
2022-10-28T05:20:45.362Z,1015.58
2022-10-28T05:21:45.346Z,1015.57
2022-10-28T05:22:45.342Z,1015.53
2022-10-28T05:23:45.331Z,1015.54
2022-10-28T05:24:45.320Z,1015.47
2022-10-28T05:25:45.306Z,1015.45
2022-10-28T05:26:45.302Z,1015.39
2022-10-28T05:27:45.288Z,1015.35
2022-10-28T05:28:45.285Z,1015.42
2022-10-28T05:29:45.277Z,1015.38
2022-10-28T05:30:45.255Z,1015.39
2022-10-28T05:31:45.244Z,1015.44
2022-10-28T05:32:45.227Z,1015.45
2022-10-28T05:33:45.224Z,1015.44
2022-10-28T05:34:45.225Z,1015.42
2022-10-28T05:35:45.194Z,1015.47
2022-10-28T05:36:45.178Z,1015.45
2022-10-28T05:37:45.180Z,1015.46
2022-10-28T05:38:45.168Z,1015.45
2022-10-28T05:39:45.152Z,1015.49
2022-10-28T05:40:45.157Z,1015.45
2022-10-28T05:41:45.119Z,1015.49
2022-10-28T05:42:45.179Z,1015.44
2022-10-28T05:43:45.102Z,1015.41
2022-10-28T05:44:45.147Z,1015.44
2022-10-28T05:45:45.109Z,1015.43
2022-10-28T05:46:45.074Z,1015.41
2022-10-28T05:47:45.067Z,1015.39
2022-10-28T05:48:45.055Z,1015.38
2022-10-28T05:49:45.037Z,1015.38
2022-10-28T05:50:45.019Z,1015.38
2022-10-28T05:51:45.039Z,1015.38
2022-10-28T05:52:45.014Z,1015.35
2022-10-28T05:53:44.991Z,1015.30
2022-10-28T05:54:44.994Z,1015.34
2022-10-28T05:55:47.645Z,1015.32
2022-10-28T05:56:44.967Z,1015.29
2022-10-28T05:57:44.976Z,1015.28
2022-10-28T05:58:44.974Z,1015.35
2022-10-28T05:59:44.950Z,1015.37
2022-10-28T06:00:45.046Z,1015.37
2022-10-28T06:01:45.003Z,1015.38
2022-10-28T06:02:44.922Z,1015.42
2022-10-28T06:03:44.909Z,1015.40
2022-10-28T06:04:44.867Z,1015.38
2022-10-28T06:05:44.861Z,1015.35
2022-10-28T06:06:44.869Z,1015.37
2022-10-28T06:07:44.852Z,1015.34
2022-10-28T06:08:44.864Z,1015.36
2022-10-28T06:09:44.825Z,1015.34
2022-10-28T06:10:44.814Z,1015.32
2022-10-28T06:11:43.261Z,1015.32
2022-10-28T06:12:43.267Z,1015.34
2022-10-28T06:13:43.256Z,1015.34
2022-10-28T06:14:43.233Z,1015.32
2022-10-28T06:15:43.226Z,1015.34
2022-10-28T06:16:43.223Z,1015.32
2022-10-28T06:17:43.208Z,1015.34
2022-10-28T06:18:43.214Z,1015.29
2022-10-28T06:19:43.186Z,1015.29
2022-10-28T06:20:43.175Z,1015.26
2022-10-28T06:21:43.166Z,1015.24
2022-10-28T06:22:43.157Z,1015.23
2022-10-28T06:23:43.143Z,1015.20
2022-10-28T06:24:43.149Z,1015.22
2022-10-28T06:25:43.118Z,1015.18
2022-10-28T06:26:43.113Z,1015.21
2022-10-28T06:27:43.110Z,1015.16
2022-10-28T06:28:43.087Z,1015.22
2022-10-28T06:29:43.082Z,1015.21
2022-10-28T06:30:43.085Z,1015.19
2022-10-28T06:31:43.060Z,1015.21
2022-10-28T06:32:43.078Z,1015.24
2022-10-28T06:33:43.052Z,1015.21
2022-10-28T06:34:43.036Z,1015.20
2022-10-28T06:35:43.045Z,1015.20
2022-10-28T06:36:43.000Z,1015.22
2022-10-28T06:37:42.994Z,1015.22
2022-10-28T06:38:43.000Z,1015.22
2022-10-28T06:39:43.027Z,1015.21
2022-10-28T06:40:42.966Z,1015.22
2022-10-28T06:41:42.956Z,1015.19
2022-10-28T06:42:42.951Z,1015.20
2022-10-28T06:43:42.935Z,1015.12
2022-10-28T06:44:42.936Z,1015.14
2022-10-28T06:45:42.942Z,1015.10
2022-10-28T06:46:44.438Z,1015.10
2022-10-28T06:47:44.422Z,1015.08
2022-10-28T06:48:44.420Z,1015.09
2022-10-28T06:49:44.400Z,1015.10
2022-10-28T06:50:44.398Z,1015.14
2022-10-28T06:51:44.404Z,1015.20
2022-10-28T06:53:44.348Z,1015.20
2022-10-28T06:54:44.332Z,1015.30
2022-10-28T06:55:44.330Z,1015.32
2022-10-28T06:56:44.329Z,1015.29
2022-10-28T06:57:44.352Z,1015.25
2022-10-28T06:58:44.303Z,1015.18
2022-10-28T06:59:44.283Z,1015.20
2022-10-28T07:00:44.282Z,1015.21
2022-10-28T07:01:44.435Z,1015.22
2022-10-28T07:02:45.271Z,1015.24
2022-10-28T07:03:44.290Z,1015.30
2022-10-28T07:04:44.245Z,1015.29
2022-10-28T07:05:44.229Z,1015.30
2022-10-28T07:06:46.344Z,1015.33
2022-10-28T07:07:44.213Z,1015.35
2022-10-28T07:08:44.232Z,1015.36
2022-10-28T07:09:44.203Z,1015.36
2022-10-28T07:10:44.174Z,1015.38
2022-10-28T07:11:44.184Z,1015.37
2022-10-28T07:12:44.162Z,1015.39
2022-10-28T07:13:45.484Z,1015.45
2022-10-28T07:14:44.136Z,1015.44
2022-10-28T07:15:44.133Z,1015.41
2022-10-28T07:16:44.146Z,1015.37
2022-10-28T07:17:44.142Z,1015.32
2022-10-28T07:18:44.096Z,1015.34
2022-10-28T07:19:44.114Z,1015.29
2022-10-28T07:20:44.100Z,1015.26
2022-10-28T07:21:44.067Z,1015.24
2022-10-28T07:22:44.073Z,1015.25
2022-10-28T07:23:44.051Z,1015.30
2022-10-28T07:24:44.086Z,1015.37
2022-10-28T07:25:44.063Z,1015.32
2022-10-28T07:26:44.012Z,1015.35
2022-10-28T07:27:44.009Z,1015.36
2022-10-28T07:28:43.998Z,1015.39
2022-10-28T07:29:44.011Z,1015.33
2022-10-28T07:30:43.973Z,1015.31
2022-10-28T07:31:43.970Z,1015.29
2022-10-28T07:32:43.973Z,1015.34
2022-10-28T07:33:43.945Z,1015.42
2022-10-28T07:34:43.935Z,1015.39
2022-10-28T07:35:43.955Z,1015.38
2022-10-28T07:36:43.935Z,1015.34
2022-10-28T07:37:43.917Z,1015.27
2022-10-28T07:38:43.900Z,1015.24
2022-10-28T07:39:43.907Z,1015.21
2022-10-28T07:40:43.906Z,1015.25
2022-10-28T07:41:43.888Z,1015.29
2022-10-28T07:42:43.852Z,1015.27
2022-10-28T07:43:43.830Z,1015.23
2022-10-28T07:44:43.823Z,1015.19
2022-10-28T07:45:43.828Z,1015.19
2022-10-28T07:46:43.820Z,1015.21
2022-10-28T07:47:43.797Z,1015.19
2022-10-28T07:48:43.783Z,1015.21
2022-10-28T07:49:43.767Z,1015.17
2022-10-28T07:50:43.760Z,1015.20
2022-10-28T07:51:43.744Z,1015.22
2022-10-28T07:52:43.764Z,1015.17
2022-10-28T07:53:43.721Z,1015.18
2022-10-28T07:54:43.720Z,1015.26
2022-10-28T07:55:43.701Z,1015.25
2022-10-28T07:56:43.714Z,1015.23
2022-10-28T07:57:43.679Z,1015.18
2022-10-28T07:58:43.661Z,1015.17
2022-10-28T07:59:43.661Z,1015.14
2022-10-28T08:00:43.694Z,1015.07
2022-10-28T08:01:43.714Z,1015.08
2022-10-28T08:02:43.637Z,1015.13
2022-10-28T08:03:43.602Z,1015.16
2022-10-28T08:04:43.660Z,1015.22
2022-10-28T08:05:43.588Z,1015.29
2022-10-28T08:06:43.592Z,1015.28
2022-10-28T08:07:43.629Z,1015.27
2022-10-28T08:08:43.551Z,1015.21
2022-10-28T08:09:43.524Z,1015.26
2022-10-28T08:10:43.524Z,1015.32
2022-10-28T08:11:43.515Z,1015.32
2022-10-28T08:12:43.489Z,1015.37
2022-10-28T08:13:43.481Z,1015.33
2022-10-28T08:14:43.482Z,1015.33
2022-10-28T08:15:43.463Z,1015.38
2022-10-28T08:16:43.437Z,1015.44
2022-10-28T08:17:43.430Z,1015.45
2022-10-28T08:18:43.411Z,1015.49
2022-10-28T08:19:44.150Z,1015.50
2022-10-28T08:20:43.408Z,1015.59
2022-10-28T08:21:43.383Z,1015.62
2022-10-28T08:22:43.364Z,1015.61
2022-10-28T08:23:43.349Z,1015.57
2022-10-28T08:24:43.351Z,1015.51
2022-10-28T08:25:43.374Z,1015.52
2022-10-28T08:26:43.310Z,1015.50
2022-10-28T08:27:43.313Z,1015.42
2022-10-28T08:28:43.297Z,1015.42
2022-10-28T08:29:43.299Z,1015.39
2022-10-28T08:30:57.229Z,1015.34
2022-10-28T08:31:44.264Z,1015.40
2022-10-28T08:32:43.252Z,1015.43
2022-10-28T08:33:43.281Z,1015.51
2022-10-28T08:34:43.808Z,1015.49
2022-10-28T08:35:43.253Z,1015.53
2022-10-28T08:36:43.280Z,1015.66
2022-10-28T08:37:43.208Z,1015.67
2022-10-28T08:38:45.701Z,1015.50
2022-10-28T08:39:43.179Z,1015.44
2022-10-28T08:40:43.177Z,1015.38
2022-10-28T08:41:43.167Z,1015.40
2022-10-28T08:42:43.178Z,1015.31
2022-10-28T08:43:56.664Z,1015.31
2022-10-28T08:44:44.154Z,1015.32
2022-10-28T08:45:43.112Z,1015.27
2022-10-28T08:46:43.107Z,1015.29
2022-10-28T08:47:43.159Z,1015.27
2022-10-28T08:48:43.101Z,1015.33
2022-10-28T08:49:45.709Z,1015.32
2022-10-28T08:50:44.054Z,1015.31
2022-10-28T08:51:43.049Z,1015.26
2022-10-28T08:52:43.035Z,1015.21
2022-10-28T08:53:43.247Z,1015.32
2022-10-28T08:54:43.019Z,1015.29
2022-10-28T08:55:43.003Z,1015.36
2022-10-28T08:56:43.003Z,1015.36
2022-10-28T08:57:42.980Z,1015.44
2022-10-28T08:58:42.988Z,1015.43
2022-10-28T08:59:42.963Z,1015.42
2022-10-28T09:00:42.957Z,1015.44
2022-10-28T09:01:43.109Z,1015.43
2022-10-28T09:02:42.939Z,1015.52
2022-10-28T09:03:42.931Z,1015.54
2022-10-28T09:04:42.905Z,1015.53
2022-10-28T09:05:42.899Z,1015.48
2022-10-28T09:06:42.890Z,1015.49
2022-10-28T09:07:42.872Z,1015.51
2022-10-28T09:08:42.876Z,1015.46
2022-10-28T09:09:42.871Z,1015.49
2022-10-28T09:10:42.832Z,1015.51
2022-10-28T09:11:42.830Z,1015.47
2022-10-28T09:12:42.833Z,1015.48
2022-10-28T09:13:42.809Z,1015.45
2022-10-28T09:14:43.675Z,1015.38
2022-10-28T09:15:42.797Z,1015.38
2022-10-28T09:16:42.780Z,1015.30
2022-10-28T09:17:42.767Z,1015.31
2022-10-28T09:18:42.746Z,1015.25
2022-10-28T09:19:42.760Z,1015.27
2022-10-28T09:20:42.733Z,1015.28
2022-10-28T09:21:42.715Z,1015.24
2022-10-28T09:22:42.711Z,1015.17
2022-10-28T09:23:42.859Z,1015.13
2022-10-28T09:24:42.696Z,1015.14
2022-10-28T09:25:42.701Z,1015.15
2022-10-28T09:26:42.661Z,1015.11
2022-10-28T09:27:42.663Z,1015.12
2022-10-28T09:28:42.651Z,1015.14
2022-10-28T09:29:44.341Z,1015.11
2022-10-28T09:30:42.619Z,1015.20
2022-10-28T09:31:42.628Z,1015.18
2022-10-28T09:32:42.617Z,1015.14
2022-10-28T09:33:42.592Z,1015.17
2022-10-28T09:34:42.597Z,1015.20
2022-10-28T09:35:42.590Z,1015.20
2022-10-28T09:36:42.650Z,1015.14
2022-10-28T09:37:42.541Z,1015.10
2022-10-28T09:38:42.545Z,1015.15
2022-10-28T09:39:42.524Z,1015.13
2022-10-28T09:40:42.512Z,1015.13
2022-10-28T09:41:42.508Z,1015.13
2022-10-28T09:42:42.519Z,1015.14
2022-10-28T09:43:42.475Z,1015.13
2022-10-28T09:44:42.481Z,1015.15
2022-10-28T09:45:42.460Z,1015.10
2022-10-28T09:46:42.446Z,1015.12
2022-10-28T09:47:42.436Z,1015.13
2022-10-28T09:48:42.439Z,1015.11
2022-10-28T09:49:42.407Z,1015.15
2022-10-28T09:50:42.399Z,1015.11
2022-10-28T09:51:42.389Z,1015.08
2022-10-28T09:52:42.412Z,1015.05
2022-10-28T09:53:42.422Z,1015.04
2022-10-28T09:54:42.357Z,1015.05
2022-10-28T09:55:42.354Z,1015.11
2022-10-28T09:56:42.341Z,1015.05
2022-10-28T09:57:42.350Z,1014.99
2022-10-28T09:58:42.323Z,1014.98
2022-10-28T09:59:42.326Z,1014.98
2022-10-28T10:00:42.311Z,1014.98
2022-10-28T10:01:42.400Z,1014.99
2022-10-28T10:02:42.489Z,1015.01
2022-10-28T10:03:42.275Z,1015.00
2022-10-28T10:04:42.279Z,1014.94
2022-10-28T10:05:42.257Z,1014.92
2022-10-28T10:06:42.228Z,1014.96
2022-10-28T10:07:42.224Z,1014.87
2022-10-28T10:08:42.210Z,1014.93
2022-10-28T10:09:42.220Z,1014.89
2022-10-28T10:10:42.195Z,1014.94
2022-10-28T10:11:42.197Z,1014.95
2022-10-28T10:12:42.173Z,1014.93
2022-10-28T10:13:42.171Z,1014.90
2022-10-28T10:14:42.147Z,1014.94
2022-10-28T10:15:42.160Z,1014.94
2022-10-28T10:16:42.165Z,1014.93
2022-10-28T10:17:42.153Z,1014.93
2022-10-28T10:18:42.121Z,1014.95
2022-10-28T10:19:42.092Z,1014.95
2022-10-28T10:20:42.087Z,1014.86
2022-10-28T10:21:42.069Z,1014.85
2022-10-28T10:22:42.079Z,1014.91
2022-10-28T10:23:42.069Z,1014.82
2022-10-28T10:24:42.042Z,1014.80
2022-10-28T10:25:42.027Z,1014.85
2022-10-28T10:26:42.025Z,1014.82
2022-10-28T10:27:42.019Z,1014.80
2022-10-28T10:28:42.009Z,1014.78
2022-10-28T10:29:41.980Z,1014.82
2022-10-28T10:30:41.970Z,1014.80
2022-10-28T10:31:41.959Z,1014.75
2022-10-28T10:32:41.983Z,1014.71
2022-10-28T10:33:41.947Z,1014.72
2022-10-28T10:34:41.925Z,1014.71
2022-10-28T10:35:41.930Z,1014.62
2022-10-28T10:36:41.902Z,1014.63
2022-10-28T10:37:41.905Z,1014.73
2022-10-28T10:38:41.900Z,1014.69
2022-10-28T10:39:41.870Z,1014.66
2022-10-28T10:40:41.903Z,1014.63
2022-10-28T10:41:41.845Z,1014.63
2022-10-28T10:42:51.682Z,1014.64
2022-10-28T10:43:42.848Z,1014.61
2022-10-28T10:44:41.819Z,1014.54
2022-10-28T10:45:41.854Z,1014.59
2022-10-28T10:46:41.797Z,1014.58
2022-10-28T10:47:41.788Z,1014.55
2022-10-28T10:48:41.782Z,1014.55
2022-10-28T10:49:41.806Z,1014.54
2022-10-28T10:50:41.763Z,1014.51
2022-10-28T10:51:41.749Z,1014.53
2022-10-28T10:52:41.734Z,1014.51
2022-10-28T10:53:41.728Z,1014.49
2022-10-28T10:54:41.712Z,1014.47
2022-10-28T10:55:41.722Z,1014.45
2022-10-28T10:56:41.730Z,1014.45
2022-10-28T10:57:41.686Z,1014.48
2022-10-28T10:58:41.670Z,1014.43
2022-10-28T10:59:41.649Z,1014.40
2022-10-28T11:00:41.674Z,1014.33
2022-10-28T11:01:41.751Z,1014.41
2022-10-28T11:02:41.788Z,1014.41
2022-10-28T11:03:41.605Z,1014.36
2022-10-28T11:04:41.609Z,1014.41
2022-10-28T11:05:41.605Z,1014.39
2022-10-28T11:06:41.601Z,1014.35
2022-10-28T11:07:41.576Z,1014.34
2022-10-28T11:08:41.556Z,1014.39
2022-10-28T11:09:41.545Z,1014.36
2022-10-28T11:10:41.531Z,1014.33
2022-10-28T11:11:41.544Z,1014.31
2022-10-28T11:12:41.510Z,1014.30
2022-10-28T11:13:45.096Z,1014.31
2022-10-28T11:14:41.482Z,1014.31
2022-10-28T11:15:41.485Z,1014.32
2022-10-28T11:16:41.472Z,1014.34
2022-10-28T11:17:41.472Z,1014.38
2022-10-28T11:18:41.442Z,1014.35
2022-10-28T11:19:41.442Z,1014.30
2022-10-28T11:20:41.430Z,1014.31
2022-10-28T11:21:41.438Z,1014.31
2022-10-28T11:22:41.461Z,1014.30
2022-10-28T11:23:41.397Z,1014.25
2022-10-28T11:24:41.393Z,1014.25
2022-10-28T11:25:41.380Z,1014.25
2022-10-28T11:26:41.369Z,1014.26
2022-10-28T11:27:41.351Z,1014.27
2022-10-28T11:28:41.352Z,1014.21
2022-10-28T11:29:41.346Z,1014.27
2022-10-28T11:30:41.325Z,1014.27
2022-10-28T11:31:41.311Z,1014.25
2022-10-28T11:32:50.136Z,1014.24
2022-10-28T11:33:42.301Z,1014.27
2022-10-28T11:34:41.273Z,1014.29
2022-10-28T11:35:41.281Z,1014.24
2022-10-28T11:36:41.255Z,1014.24
2022-10-28T11:37:41.236Z,1014.21
2022-10-28T11:38:45.535Z,1014.23
2022-10-28T11:39:41.216Z,1014.21
2022-10-28T11:40:41.203Z,1014.23
2022-10-28T11:41:41.417Z,1014.21
2022-10-28T11:42:41.207Z,1014.21
2022-10-28T11:43:41.196Z,1014.16
2022-10-28T11:44:41.167Z,1014.09
2022-10-28T11:45:41.161Z,1014.12
2022-10-28T11:46:41.150Z,1014.13
2022-10-28T11:47:41.152Z,1014.09
2022-10-28T11:48:41.145Z,1014.10
2022-10-28T11:49:41.116Z,1014.10
2022-10-28T11:50:41.140Z,1014.08
2022-10-28T11:51:41.090Z,1014.05
2022-10-28T11:52:45.074Z,1014.05
2022-10-28T11:53:41.067Z,1013.98
2022-10-28T11:54:41.064Z,1013.98
2022-10-28T11:55:41.071Z,1013.93
2022-10-28T11:56:41.028Z,1014.05
2022-10-28T11:57:41.183Z,1014.08
2022-10-28T11:58:41.022Z,1014.06
2022-10-28T11:59:41.006Z,1014.06
2022-10-28T12:00:40.995Z,1014.07
2022-10-28T12:01:41.171Z,1014.04
2022-10-28T12:02:41.038Z,1014.05
2022-10-28T12:03:40.956Z,1014.02
2022-10-28T12:04:40.954Z,1014.13
2022-10-28T12:05:40.960Z,1014.09
2022-10-28T12:06:40.930Z,1014.11
2022-10-28T12:07:40.924Z,1014.11
2022-10-28T12:08:40.908Z,1014.02